createdAt,value
2022-11-08T00:00:01.840Z,4.86
2022-11-08T00:05:52.513Z,4.77
2022-11-08T00:11:21.554Z,4.74
2022-11-08T00:16:25.438Z,4.71
2022-11-08T00:21:28.907Z,4.71
2022-11-08T00:26:32.271Z,4.72
2022-11-08T00:31:35.704Z,4.67
2022-11-08T00:36:39.010Z,4.61
2022-11-08T00:41:42.433Z,4.53
2022-11-08T00:46:45.864Z,4.46
2022-11-08T00:51:49.244Z,4.40
2022-11-08T00:56:52.693Z,4.35
2022-11-08T01:01:56.271Z,4.36
2022-11-08T01:06:59.755Z,4.37
2022-11-08T01:12:06.417Z,4.36
2022-11-08T01:17:14.224Z,4.33
2022-11-08T01:22:17.536Z,4.33
2022-11-08T01:27:20.741Z,4.30
2022-11-08T01:32:25.193Z,4.26
2022-11-08T01:37:29.597Z,4.24
2022-11-08T01:42:33.533Z,4.24
2022-11-08T01:47:37.008Z,4.23
2022-11-08T01:52:47.043Z,4.23
2022-11-08T01:57:59.429Z,4.24
2022-11-08T02:03:05.066Z,4.29
2022-11-08T02:08:32.181Z,4.35
2022-11-08T02:13:37.131Z,4.34
2022-11-08T02:18:42.559Z,4.29
2022-11-08T02:23:52.938Z,4.23
2022-11-08T02:28:56.749Z,4.19
2022-11-08T02:34:00.636Z,4.16
2022-11-08T02:39:04.180Z,4.11
2022-11-08T02:44:07.565Z,4.08
2022-11-08T02:49:11.555Z,4.07
2022-11-08T02:54:15.788Z,4.08
2022-11-08T02:59:19.510Z,4.14
2022-11-08T03:04:22.871Z,4.15
2022-11-08T03:09:27.653Z,4.13
2022-11-08T03:14:31.051Z,4.07
2022-11-08T03:19:34.491Z,4.04
2022-11-08T03:24:37.979Z,4.02
2022-11-08T03:29:46.842Z,4.01
2022-11-08T03:34:53.282Z,4.02
2022-11-08T03:39:57.924Z,4.05
2022-11-08T03:45:01.843Z,4.05
2022-11-08T03:50:10.200Z,4.03
2022-11-08T03:55:14.246Z,4.05
2022-11-08T04:00:24.834Z,4.07
2022-11-08T04:05:30.110Z,4.07
2022-11-08T04:10:34.045Z,4.07
2022-11-08T04:15:37.391Z,4.05
2022-11-08T04:21:00.446Z,4.02
2022-11-08T04:26:07.614Z,3.98
2022-11-08T04:31:18.701Z,3.94
2022-11-08T04:36:24.935Z,3.95
2022-11-08T04:41:28.610Z,3.98
2022-11-08T04:46:32.297Z,3.98
2022-11-08T04:51:35.724Z,3.95
2022-11-08T04:56:39.031Z,3.89
2022-11-08T05:01:44.908Z,3.83
2022-11-08T05:06:48.646Z,3.74
2022-11-08T05:11:52.003Z,3.69
2022-11-08T05:16:56.821Z,3.65
2022-11-08T05:22:19.026Z,3.62
2022-11-08T05:27:22.470Z,3.61
2022-11-08T05:32:26.139Z,3.61
2022-11-08T05:37:29.775Z,3.63
2022-11-08T05:42:33.774Z,3.67
2022-11-08T05:47:38.331Z,3.69
2022-11-08T05:52:43.409Z,3.68
2022-11-08T05:57:47.832Z,3.67
2022-11-08T06:02:51.144Z,3.67
2022-11-08T06:07:54.950Z,3.70
2022-11-08T06:13:03.426Z,3.69
2022-11-08T06:18:06.828Z,3.68
2022-11-08T06:23:10.827Z,3.65
2022-11-08T06:28:20.700Z,3.66
2022-11-08T06:33:26.668Z,3.71
2022-11-08T06:38:30.097Z,3.80
2022-11-08T06:43:34.337Z,3.89
2022-11-08T06:48:38.300Z,3.99
2022-11-08T06:53:42.101Z,4.12
2022-11-08T06:58:45.712Z,4.29
2022-11-08T07:03:49.247Z,4.43
2022-11-08T07:08:52.615Z,4.57
2022-11-08T07:13:55.989Z,4.74
2022-11-08T07:18:59.413Z,4.92
2022-11-08T07:24:03.487Z,5.10
2022-11-08T07:29:06.917Z,5.28
2022-11-08T07:34:10.268Z,5.47
2022-11-08T07:39:13.623Z,5.67
2022-11-08T07:44:17.172Z,5.88
2022-11-08T07:49:20.591Z,6.12
2022-11-08T07:54:23.881Z,6.41
2022-11-08T07:59:29.712Z,6.73
2022-11-08T08:04:37.071Z,7.05
2022-11-08T08:09:40.474Z,7.33
2022-11-08T08:14:44.113Z,7.57
2022-11-08T08:19:51.879Z,7.84
2022-11-08T08:25:03.973Z,8.12
2022-11-08T08:30:07.892Z,8.44
2022-11-08T08:35:11.986Z,8.76
2022-11-08T08:40:20.903Z,9.08
2022-11-08T08:45:28.101Z,9.45
2022-11-08T08:50:32.486Z,9.78
2022-11-08T08:55:36.792Z,10.08
2022-11-08T09:06:04.625Z,10.77
2022-11-08T09:11:08.209Z,11.12
2022-11-08T09:16:13.800Z,11.44
2022-11-08T09:21:17.461Z,11.69
2022-11-08T09:26:20.768Z,11.92
2022-11-08T09:31:24.081Z,12.18
2022-11-08T09:36:27.343Z,12.46
2022-11-08T09:41:51.501Z,12.73
2022-11-08T09:47:05.315Z,12.98
2022-11-08T09:52:11.759Z,13.22
2022-11-08T09:57:32.354Z,13.45
2022-11-08T10:02:39.470Z,13.68
2022-11-08T10:07:48.826Z,13.91
2022-11-08T10:13:27.494Z,14.12
2022-11-08T10:18:40.586Z,14.30
2022-11-08T10:23:48.361Z,14.44
2022-11-08T10:28:58.661Z,14.52
2022-11-08T10:34:04.174Z,14.56
2022-11-08T10:39:28.126Z,14.64
2022-11-08T10:44:31.530Z,14.73
2022-11-08T10:49:39.448Z,14.75
2022-11-08T10:54:47.920Z,14.79
2022-11-08T10:59:52.213Z,14.90
2022-11-08T11:05:18.383Z,14.98
2022-11-08T11:10:28.000Z,15.06
2022-11-08T11:15:51.113Z,15.13
2022-11-08T11:21:16.660Z,15.19
2022-11-08T11:26:39.377Z,15.23
2022-11-08T11:31:45.107Z,15.35
2022-11-08T11:36:52.905Z,15.45
2022-11-08T11:42:18.086Z,15.53
2022-11-08T11:47:33.778Z,15.65
2022-11-08T11:52:37.264Z,15.76
2022-11-08T11:58:03.114Z,15.86
2022-11-08T12:03:25.732Z,15.94
2022-11-08T12:08:48.115Z,15.99
2022-11-08T12:14:19.632Z,16.04
2022-11-08T12:19:46.462Z,16.10
2022-11-08T12:24:53.340Z,16.17
2022-11-08T12:30:46.380Z,16.20
2022-11-08T12:36:40.807Z,16.26
2022-11-08T12:42:04.121Z,16.33
2022-11-08T12:47:07.546Z,16.34
2022-11-08T12:52:49.460Z,16.37
2022-11-08T12:57:54.430Z,16.42
2022-11-08T13:03:13.916Z,16.47
2022-11-08T13:08:31.421Z,16.47
2022-11-08T13:13:57.340Z,16.45
2022-11-08T13:19:01.762Z,16.42
2022-11-08T13:24:14.100Z,16.39
2022-11-08T13:29:27.712Z,16.39
2022-11-08T13:35:19.115Z,16.33
2022-11-08T13:40:53.394Z,16.18
2022-11-08T13:46:35.277Z,16.03
2022-11-08T13:51:39.404Z,15.93
2022-11-08T13:56:51.663Z,15.83
2022-11-08T14:01:55.127Z,15.70
2022-11-08T14:12:46.354Z,15.45
2022-11-08T14:17:58.343Z,15.30
2022-11-08T14:23:20.620Z,15.14
2022-11-08T14:28:33.171Z,14.96
2022-11-08T14:33:42.908Z,14.78
2022-11-08T14:39:01.149Z,14.58
2022-11-08T14:44:05.146Z,14.37
2022-11-08T14:49:15.802Z,14.14
2022-11-08T14:54:29.877Z,13.90
2022-11-08T14:59:33.636Z,13.65
2022-11-08T15:04:39.616Z,13.36
2022-11-08T15:09:43.070Z,13.06
2022-11-08T15:14:56.274Z,12.84
2022-11-08T15:20:08.481Z,12.63
2022-11-08T15:25:14.223Z,12.36
2022-11-08T15:30:33.095Z,12.07
2022-11-08T15:35:39.624Z,11.80
2022-11-08T15:40:49.944Z,11.58
2022-11-08T15:45:54.472Z,11.36
2022-11-08T15:51:19.933Z,11.18
2022-11-08T15:56:40.584Z,11.03
2022-11-08T16:02:22.521Z,10.87
2022-11-08T16:07:37.372Z,10.72
2022-11-08T16:12:57.850Z,10.58
2022-11-08T16:18:02.990Z,10.44
2022-11-08T16:23:12.244Z,10.30
2022-11-08T16:28:38.334Z,10.25
2022-11-08T16:33:43.455Z,10.23
2022-11-08T16:38:53.686Z,10.19
2022-11-08T16:43:57.154Z,10.19
2022-11-08T16:49:21.639Z,10.13
2022-11-08T16:54:28.793Z,10.07
2022-11-08T16:59:33.736Z,10.02
2022-11-08T17:04:37.188Z,9.89
2022-11-08T17:09:41.611Z,9.74
2022-11-08T17:14:48.319Z,9.62
2022-11-08T17:19:52.073Z,9.49
2022-11-08T17:24:59.333Z,9.34
2022-11-08T17:30:05.484Z,9.20
2022-11-08T17:35:10.406Z,9.04
2022-11-08T17:40:21.231Z,8.92
2022-11-08T17:45:24.814Z,8.88
2022-11-08T17:50:31.383Z,8.82
2022-11-08T17:55:35.556Z,8.78
2022-11-08T18:00:39.099Z,8.77
2022-11-08T18:06:00.132Z,8.84
2022-11-08T18:11:10.890Z,8.88
2022-11-08T18:16:26.783Z,8.85
2022-11-08T18:22:21.518Z,8.86
2022-11-08T18:27:25.950Z,8.83
2022-11-08T18:32:53.624Z,8.81
2022-11-08T18:38:23.344Z,8.81
2022-11-08T18:43:30.459Z,8.82
2022-11-08T18:48:41.416Z,8.80
2022-11-08T18:54:02.912Z,8.79
2022-11-08T18:59:22.045Z,8.78
2022-11-08T19:04:26.058Z,8.77
2022-11-08T19:09:30.580Z,8.76
2022-11-08T19:14:45.031Z,8.74
2022-11-08T19:19:50.072Z,8.71
2022-11-08T19:24:53.592Z,8.67
2022-11-08T19:30:17.909Z,8.60
2022-11-08T19:35:23.851Z,8.50
2022-11-08T19:40:37.866Z,8.47
2022-11-08T19:45:50.619Z,8.45
2022-11-08T19:50:56.925Z,8.40
2022-11-08T19:56:10.375Z,8.32
2022-11-08T20:01:20.328Z,8.31
2022-11-08T20:06:35.225Z,8.33
2022-11-08T20:11:53.743Z,8.30
2022-11-08T20:17:09.418Z,8.25
2022-11-08T20:22:16.648Z,8.20
2022-11-08T20:27:26.765Z,8.11
2022-11-08T20:32:34.834Z,8.04
2022-11-08T20:37:42.143Z,7.95
2022-11-08T20:42:45.653Z,7.87
2022-11-08T20:47:51.581Z,7.80
2022-11-08T20:52:57.437Z,7.74
2022-11-08T20:58:05.302Z,7.68
2022-11-08T21:03:19.162Z,7.62
2022-11-08T21:09:00.044Z,7.56
2022-11-08T21:14:36.462Z,7.50
2022-11-08T21:20:05.171Z,7.47
2022-11-08T21:30:38.268Z,7.41
2022-11-08T21:35:53.622Z,7.36
2022-11-08T21:41:06.738Z,7.29
2022-11-08T21:46:24.871Z,7.28
2022-11-08T21:51:30.039Z,7.26
2022-11-08T21:56:34.943Z,7.23
2022-11-08T22:01:41.377Z,7.19
2022-11-08T22:06:47.655Z,7.16
2022-11-08T22:11:54.312Z,7.17
2022-11-08T22:17:08.703Z,7.18
2022-11-08T22:22:14.289Z,7.17
2022-11-08T22:27:18.757Z,7.14
2022-11-08T22:32:25.420Z,7.14
2022-11-08T22:37:35.037Z,7.13
2022-11-08T22:42:43.173Z,7.11
2022-11-08T22:47:50.157Z,7.09
2022-11-08T22:52:57.392Z,7.05
2022-11-08T22:58:03.825Z,7.01
2022-11-08T23:03:13.424Z,6.96
2022-11-08T23:08:22.392Z,6.95
2022-11-08T23:13:47.649Z,6.97
2022-11-08T23:19:10.127Z,6.96
2022-11-08T23:24:22.887Z,6.92
2022-11-08T23:29:49.119Z,6.92
2022-11-08T23:34:53.047Z,6.87
2022-11-08T23:40:26.482Z,6.86
2022-11-08T23:45:38.187Z,6.86
2022-11-08T23:51:02.028Z,6.85
2022-11-08T23:56:08.066Z,6.90
